Flight Track Log - Related Links

Times and Time Zones

All times are in EDT time to prevent confusion due to time zone crossing. See the N511RZ flight status page for this flight to view local times or setup timezone preferences in your user account.

Time Position Orientation Groundspeed Altitude Reporting Facility
EDT Latitude Longitude Course Direction KTS MPH feet Rate Location/Type
Sat 07:28:43 PM 33.4708 -93.9672 46° Northeast 268 308 1,600  Level Fort Worth Center
Sat 07:29:43 PM 33.5031 -93.9286 45° Northeast 227 261 3,400 1,797 Climbing Fort Worth Center
Sat 07:31:50 PM 33.5669 -93.8450 47° Northeast 172 198 7,200 1,829 Climbing Memphis Center
Sat 07:32:50 PM 33.5931 -93.8061 51° Northeast 160 184 9,100 1,750 Climbing Memphis Center
Sat 07:33:00 PM 33.6317 -93.7354 46° Northeast  Level FlightAware Approximate
Sat 07:33:50 PM 33.6233 -93.7647 49° Northeast 160 184 10,700  Level Memphis Center
Sat 07:34:50 PM 33.6600 -93.7164 48° Northeast 168 193 10,900 100 Climbing Memphis Center
Sat 07:35:50 PM 33.7014 -93.6581 50° Northeast 194 223 10,900  Level Memphis Center
Sat 07:36:50 PM 33.7447 -93.5997 48° Northeast 214 246 10,900  Level Memphis Center
Sat 07:37:50 PM 33.7856 -93.5464 47° Northeast 220 253 10,900 50 Level Memphis Center
Sat 07:38:50 PM 33.8289 -93.4878 48° Northeast 225 259 11,000 50 Climbing Memphis Center
Sat 07:39:50 PM 33.8700 -93.4292 50° Northeast 225 259 11,000  Level Memphis Center
Sat 07:40:50 PM 33.9131 -93.3708 48° Northeast 225 259 11,000  Level Memphis Center
Sat 07:41:50 PM 33.9564 -93.3097 49° Northeast 225 259 11,000  Level Memphis Center
Sat 07:42:50 PM 33.9975 -93.2483 51° Northeast 225 259 11,000  Level Memphis Center
Sat 07:43:50 PM 34.0406 -93.1922 47° Northeast 225 259 11,000  Level Memphis Center
Sat 07:44:50 PM 34.0836 -93.1333 49° Northeast 225 259 11,000  Level Memphis Center
Sat 07:45:50 PM 34.1286 -93.0722 48° Northeast 225 259 11,000 45 Level Memphis Center
Sat 07:47:02 PM 34.1783 -92.9958 52° Northeast 234 269 11,100 59 Climbing Memphis Center
Sat 07:47:32 PM 34.2039 -92.9639 46° Northeast 236 272 11,100 -264 Level Memphis Center
Sat 07:48:33 PM 34.2447 -92.9100 47° Northeast 235 270 10,700 -496 Descending Memphis Center
Sat 07:49:33 PM 34.2919 -92.8411 50° Northeast 249 287 10,100 -298 Descending Memphis Center
Sat 07:50:34 PM 34.3328 -92.7869 48° Northeast 229 264 10,100 -541 Level Memphis Center
Sat 07:51:35 PM 34.3758 -92.7225 51° Northeast 232 267 9,000 -971 Descending Memphis Center
Sat 07:52:50 PM 34.4358 -92.6411 48° Northeast 231 266 7,900 -843 Descending Memphis Center
Sat 07:53:36 PM 34.4636 -92.5992 51° Northeast 243 280 7,300 -849 Descending Memphis Center
Sat 07:54:36 PM 34.5106 -92.5322 50° Northeast 239 275 6,400 -893 Descending Memphis Center
Sat 07:55:37 PM 34.5514 -92.4753 49° Northeast 238 274 5,500 -885 Descending Memphis Center
Sat 07:56:38 PM 34.5881 -92.4056 57° Northeast 239 275 4,600 -1,140 Descending Memphis Center
Sat 07:57:38 PM 34.6183 -92.3356 62° Northeast 238 274 3,200 -1,190 Descending Memphis Center
Sat 07:58:39 PM 34.6547 -92.2733 55° Northeast 210 242 2,200 -984 Descending Memphis Center
Sat 07:59:40 PM 34.6844 -92.2436 39° Northeast 137 158 1,200 -984 Descending Memphis Center

Login

Don't have an account? Register now (free) for customized features, flight alerts, and more!